Time;durP1;ratioP1;P1;durP2;ratioP2;P2;SDS_P1;SDS_P2;PMS_P1;PMS_P2;Temp;Humidity;BMP_temperature;BMP_pressure;BME280_temperature;BME280_humidity;BME280_pressure;Samples;Min_cycle;Max_cycle;Signal;HPM_P1;HPM_P2
2022/01/05 00:01:32;;;;;;;2.93;2.50;;;2.00;99.90;;;;;;5055551;28;20454;-67
2022/01/05 00:04:00;;;;;;;3.37;3.07;;;2.00;99.90;;;;;;5055198;28;20532;-68
2022/01/05 00:06:27;;;;;;;4.13;2.20;;;1.80;99.90;;;;;;5055303;28;20507;-68
2022/01/05 00:08:54;;;;;;;3.80;2.10;;;1.80;99.90;;;;;;5052987;28;20454;-68
2022/01/05 00:11:22;;;;;;;3.53;2.20;;;1.70;99.90;;;;;;5054694;28;20927;-69
2022/01/05 00:13:50;;;;;;;3.90;1.97;;;1.80;99.90;;;;;;5055183;28;20541;-70
2022/01/05 00:16:20;;;;;;;2.73;1.70;;;1.80;99.90;;;;;;5047454;28;20463;-71
2022/01/05 00:18:47;;;;;;;2.50;1.80;;;1.80;99.90;;;;;;5050617;28;20470;-71
2022/01/05 00:21:16;;;;;;;2.50;1.57;;;1.70;99.90;;;;;;5056141;28;20937;-72
2022/01/05 00:23:43;;;;;;;2.20;1.97;;;1.70;99.90;;;;;;5053539;28;20461;-72
2022/01/05 00:26:10;;;;;;;2.80;2.20;;;1.70;99.90;;;;;;5056516;28;20462;-72
2022/01/05 00:28:37;;;;;;;3.23;2.40;;;1.80;99.90;;;;;;5056229;28;20470;-71
2022/01/05 00:31:04;;;;;;;4.37;2.07;;;1.90;99.90;;;;;;5056325;28;20425;-71
2022/01/05 00:33:31;;;;;;;2.43;2.23;;;1.80;99.90;;;;;;5056196;28;20863;-71
2022/01/05 00:36:01;;;;;;;4.37;2.77;;;1.80;99.90;;;;;;5056073;28;20462;-71
2022/01/05 00:38:34;;;;;;;4.47;3.23;;;1.90;99.90;;;;;;5055622;28;20459;-71
2022/01/05 00:41:01;;;;;;;4.70;3.40;;;2.00;99.90;;;;;;5056209;28;20450;-72
2022/01/05 00:43:28;;;;;;;6.50;3.70;;;2.10;99.90;;;;;;5055900;28;20454;-72
2022/01/05 00:45:57;;;;;;;6.60;4.50;;;2.00;99.90;;;;;;5056133;28;20482;-72
2022/01/05 00:48:29;;;;;;;7.30;4.40;;;2.10;99.90;;;;;;5056518;28;20809;-70
2022/01/05 00:50:58;;;;;;;7.10;3.90;;;2.10;99.90;;;;;;5055593;28;20501;-70
2022/01/05 00:53:26;;;;;;;6.20;3.53;;;2.20;99.90;;;;;;5061043;28;20494;-69
2022/01/05 00:55:55;;;;;;;7.10;3.80;;;2.10;99.90;;;;;;5058087;28;20460;-69
2022/01/05 00:58:22;;;;;;;5.83;3.90;;;2.10;99.90;;;;;;5055859;28;20519;-69
2022/01/05 01:00:49;;;;;;;6.30;4.17;;;2.10;99.90;;;;;;5055472;28;20466;-69
2022/01/05 01:03:16;;;;;;;5.27;4.10;;;2.20;99.90;;;;;;5055755;28;20458;-69
2022/01/05 01:05:43;;;;;;;7.07;5.87;;;2.20;99.90;;;;;;5055278;28;20462;-69
2022/01/05 01:08:10;;;;;;;7.23;5.73;;;2.10;99.90;;;;;;5035543;28;20441;-69
2022/01/05 01:10:40;;;;;;;7.90;6.60;;;2.10;99.90;;;;;;5037038;28;20888;-69
2022/01/05 01:13:09;;;;;;;11.63;7.17;;;2.10;99.90;;;;;;5036439;28;20979;-68
2022/01/05 01:15:36;;;;;;;8.57;7.47;;;2.10;99.90;;;;;;5037121;28;20487;-68
2022/01/05 01:18:03;;;;;;;8.77;7.87;;;2.00;99.90;;;;;;5036105;28;20537;-68
2022/01/05 01:20:29;;;;;;;13.60;8.30;;;2.00;99.90;;;;;;5037827;28;20467;-68
2022/01/05 01:22:57;;;;;;;12.37;9.53;;;2.00;99.90;;;;;;5040569;28;20513;-68
2022/01/05 01:25:24;;;;;;;10.97;9.87;;;2.00;99.90;;;;;;5040918;28;20868;-67
2022/01/05 01:27:51;;;;;;;11.53;9.80;;;2.10;99.90;;;;;;5040840;28;20749;-67
2022/01/05 01:30:19;;;;;;;10.60;9.00;;;2.10;99.90;;;;;;5040598;28;20467;-67
2022/01/05 01:32:46;;;;;;;10.97;9.90;;;2.20;99.90;;;;;;5039569;28;20528;-67
2022/01/05 01:35:14;;;;;;;10.97;9.77;;;2.20;99.90;;;;;;5040683;28;20529;-67
2022/01/05 01:37:41;;;;;;;9.30;8.37;;;2.20;99.90;;;;;;5040859;28;20470;-67
2022/01/05 01:40:10;;;;;;;12.47;10.03;;;2.20;99.90;;;;;;5040753;28;20459;-67
2022/01/05 01:42:37;;;;;;;13.90;10.20;;;2.10;99.90;;;;;;5040180;28;20467;-67
2022/01/05 01:45:05;;;;;;;13.73;11.20;;;2.20;99.90;;;;;;5040670;28;20469;-67
2022/01/05 01:47:33;;;;;;;19.40;13.40;;;2.20;99.90;;;;;;5040600;28;20471;-67
2022/01/05 01:50:00;;;;;;;22.60;13.47;;;2.20;99.90;;;;;;5040728;28;20970;-66
2022/01/05 01:52:27;;;;;;;24.20;14.30;;;2.10;99.90;;;;;;5057232;28;20470;-66
2022/01/05 01:54:54;;;;;;;18.53;13.87;;;2.20;99.90;;;;;;5060622;28;20992;-67
2022/01/05 01:57:22;;;;;;;20.40;14.30;;;2.20;99.90;;;;;;5059837;28;20458;-66
2022/01/05 01:59:49;;;;;;;19.53;14.10;;;2.30;99.90;;;;;;5060391;28;20461;-66
2022/01/05 02:02:18;;;;;;;18.40;12.90;;;2.30;99.90;;;;;;5060139;28;20513;-66
2022/01/05 02:04:46;;;;;;;21.70;14.40;;;2.20;99.90;;;;;;5060586;28;20462;-66
2022/01/05 02:07:13;;;;;;;16.60;11.23;;;2.30;99.90;;;;;;5060069;28;20496;-65
2022/01/05 02:09:41;;;;;;;15.50;11.33;;;2.30;99.90;;;;;;5060025;28;20462;-66
2022/01/05 02:12:13;;;;;;;21.50;12.03;;;2.40;99.90;;;;;;5059255;28;20489;-66
2022/01/05 02:14:40;;;;;;;18.00;11.70;;;2.40;99.90;;;;;;5060506;28;20944;-65
2022/01/05 02:17:18;;;;;;;17.43;10.60;;;2.40;99.90;;;;;;5060325;28;20437;-65
2022/01/05 02:19:46;;;;;;;13.83;9.60;;;2.40;99.90;;;;;;5059979;28;20465;-65
2022/01/05 02:22:14;;;;;;;15.47;10.27;;;2.30;99.90;;;;;;5059418;28;20520;-65
2022/01/05 02:24:46;;;;;;;16.43;10.10;;;2.40;99.90;;;;;;5058790;28;20462;-65
2022/01/05 02:27:13;;;;;;;18.27;10.60;;;2.40;99.90;;;;;;5043732;28;20506;-65
2022/01/05 02:29:40;;;;;;;12.77;9.57;;;2.40;99.90;;;;;;5041614;28;20474;-65
2022/01/05 02:32:08;;;;;;;18.10;10.80;;;2.40;99.90;;;;;;5059611;28;20879;-65
2022/01/05 02:34:35;;;;;;;15.20;9.63;;;2.40;99.90;;;;;;5060194;28;20946;-65
2022/01/05 02:37:02;;;;;;;15.93;9.20;;;2.40;99.90;;;;;;5046742;28;20442;-64
2022/01/05 02:39:31;;;;;;;16.43;9.53;;;2.40;99.90;;;;;;5047011;28;20905;-64
2022/01/05 02:42:00;;;;;;;13.63;8.90;;;2.40;99.90;;;;;;5056100;28;20458;-64
2022/01/05 02:44:26;;;;;;;17.77;9.50;;;2.40;99.90;;;;;;5059958;28;20450;-64
2022/01/05 02:46:53;;;;;;;15.37;10.87;;;2.40;99.90;;;;;;5049334;28;20904;-64
2022/01/05 02:49:23;;;;;;;21.10;10.07;;;2.40;99.90;;;;;;5043245;28;20463;-64
2022/01/05 02:51:50;;;;;;;17.83;10.87;;;2.40;99.90;;;;;;5044188;28;20463;-63
2022/01/05 02:54:20;;;;;;;17.60;11.57;;;2.40;99.90;;;;;;5041400;28;20561;-63
2022/01/05 02:56:49;;;;;;;18.57;12.10;;;2.40;99.90;;;;;;5045371;28;20454;-63
2022/01/05 02:59:16;;;;;;;14.87;10.50;;;2.40;99.90;;;;;;5060748;28;20532;-63
2022/01/05 03:01:43;;;;;;;16.80;11.13;;;2.40;99.90;;;;;;5059163;28;20462;-63
2022/01/05 03:04:10;;;;;;;24.13;12.33;;;2.50;99.90;;;;;;5060490;28;20458;-63
2022/01/05 03:06:40;;;;;;;20.47;10.77;;;2.40;99.90;;;;;;5058977;28;20934;-63
2022/01/05 03:11:49;;;;;;;19.80;12.20;;;2.40;99.90;;;;;;5037874;28;20959;-63
2022/01/05 03:14:16;;;;;;;16.73;11.20;;;2.50;99.90;;;;;;5058812;28;20544;-62
2022/01/05 03:16:43;;;;;;;15.47;11.83;;;2.50;99.90;;;;;;5058440;28;20528;-62
2022/01/05 03:19:10;;;;;;;21.33;12.00;;;2.40;99.90;;;;;;5039230;28;20464;-62
2022/01/05 03:21:37;;;;;;;18.57;11.87;;;2.40;99.90;;;;;;5038762;28;20485;-62
2022/01/05 03:24:07;;;;;;;23.23;11.33;;;2.40;99.90;;;;;;5038958;28;20442;-62
2022/01/05 03:26:34;;;;;;;27.80;11.67;;;2.40;99.90;;;;;;5039101;28;20553;-62
2022/01/05 03:29:03;;;;;;;18.30;10.67;;;2.40;99.90;;;;;;5048017;28;20529;-62
2022/01/05 03:31:30;;;;;;;21.37;11.30;;;2.50;99.90;;;;;;5058791;28;20466;-62
2022/01/05 03:33:57;;;;;;;16.77;10.40;;;2.50;99.90;;;;;;5039607;28;20905;-62
2022/01/05 03:36:24;;;;;;;21.33;9.60;;;2.50;99.90;;;;;;5038084;28;20513;-63
2022/01/05 03:38:51;;;;;;;14.47;11.17;;;2.40;99.90;;;;;;5038873;28;20463;-62
2022/01/05 03:41:18;;;;;;;16.10;9.20;;;2.30;99.90;;;;;;5037970;28;20514;-63
2022/01/05 03:43:45;;;;;;;13.27;9.73;;;2.30;99.90;;;;;;5050390;28;20498;-62
2022/01/05 03:46:13;;;;;;;18.53;9.97;;;2.30;99.90;;;;;;5058526;28;20462;-63
2022/01/05 03:48:40;;;;;;;17.57;10.23;;;2.30;99.90;;;;;;5055954;28;20466;-63
2022/01/05 03:51:07;;;;;;;19.30;10.30;;;2.30;99.90;;;;;;5056815;28;20488;-63
2022/01/05 03:53:38;;;;;;;21.17;10.20;;;2.30;99.90;;;;;;5056271;28;20536;-63
2022/01/05 03:56:05;;;;;;;17.10;8.50;;;2.30;99.90;;;;;;5057740;28;20793;-63
2022/01/05 03:58:32;;;;;;;12.20;9.60;;;2.30;99.90;;;;;;5057151;28;20529;-63
2022/01/05 04:00:59;;;;;;;16.67;8.63;;;2.30;99.90;;;;;;5040349;28;20467;-64
2022/01/05 04:03:27;;;;;;;18.13;9.10;;;2.30;99.90;;;;;;5044361;28;20824;-63
2022/01/05 04:05:55;;;;;;;14.57;7.93;;;2.20;99.90;;;;;;5038150;28;20456;-63
2022/01/05 04:08:22;;;;;;;14.30;8.70;;;2.20;99.90;;;;;;5038176;28;20466;-63
2022/01/05 04:10:48;;;;;;;13.30;7.83;;;2.20;99.90;;;;;;5038721;28;20568;-63
2022/01/05 04:13:16;;;;;;;13.60;7.47;;;2.20;99.90;;;;;;5057775;28;20525;-63
2022/01/05 04:15:43;;;;;;;13.90;7.77;;;2.10;99.90;;;;;;5056655;28;20589;-63
2022/01/05 04:18:10;;;;;;;19.33;7.37;;;2.10;99.90;;;;;;5057535;28;20851;-63
2022/01/05 04:20:38;;;;;;;16.57;6.17;;;2.00;99.90;;;;;;5058219;28;20478;-63
2022/01/05 04:23:05;;;;;;;14.57;6.67;;;2.00;99.90;;;;;;5057941;28;20486;-63
2022/01/05 04:25:33;;;;;;;13.83;6.67;;;2.00;99.90;;;;;;5057610;28;20551;-62
2022/01/05 04:28:00;;;;;;;15.10;8.17;;;2.00;99.90;;;;;;5040549;28;20470;-62
2022/01/05 04:30:27;;;;;;;15.10;7.33;;;2.00;99.90;;;;;;5036124;28;20524;-62
2022/01/05 04:32:54;;;;;;;9.20;6.33;;;2.00;99.90;;;;;;5035812;28;20543;-63
2022/01/05 04:35:21;;;;;;;13.80;6.07;;;2.00;99.90;;;;;;5035863;28;20493;-62
2022/01/05 04:37:49;;;;;;;12.33;5.70;;;1.90;99.90;;;;;;5036928;28;20517;-62
2022/01/05 04:40:16;;;;;;;13.43;6.07;;;1.90;99.90;;;;;;5037384;28;20909;-63
2022/01/05 04:42:43;;;;;;;11.13;5.70;;;1.90;99.90;;;;;;5052460;28;20516;-63
2022/01/05 04:45:10;;;;;;;16.33;5.50;;;1.80;99.90;;;;;;5057477;28;20458;-63
2022/01/05 04:47:37;;;;;;;14.43;4.73;;;1.80;99.90;;;;;;5054101;28;20514;-62
2022/01/05 04:50:05;;;;;;;10.17;5.50;;;1.70;99.90;;;;;;5038900;28;20466;-62
2022/01/05 04:52:33;;;;;;;10.53;4.40;;;1.70;99.90;;;;;;5037428;28;20493;-62
2022/01/05 04:55:01;;;;;;;14.03;5.00;;;1.60;99.90;;;;;;5037264;28;20838;-62
2022/01/05 04:57:28;;;;;;;10.20;4.50;;;1.60;99.90;;;;;;5036702;28;20466;-61
2022/01/05 04:59:55;;;;;;;12.07;5.37;;;1.50;99.90;;;;;;5055700;28;20466;-60
2022/01/05 05:02:22;;;;;;;12.40;4.50;;;1.50;99.90;;;;;;5052000;28;20459;-61
2022/01/05 05:04:52;;;;;;;12.63;4.60;;;1.50;99.90;;;;;;5036998;28;20529;-60
2022/01/05 05:07:19;;;;;;;9.00;4.43;;;1.40;99.90;;;;;;5037268;28;20462;-59
2022/01/05 05:09:46;;;;;;;12.67;4.33;;;1.40;99.90;;;;;;5038518;28;20467;-58
2022/01/05 05:12:15;;;;;;;13.27;4.60;;;1.40;99.90;;;;;;5048995;28;20809;-61
2022/01/05 05:14:44;;;;;;;7.10;4.33;;;1.40;99.90;;;;;;5054707;28;20535;-62
2022/01/05 05:17:13;;;;;;;10.40;4.40;;;1.50;99.90;;;;;;5056562;28;20462;-62
2022/01/05 05:19:39;;;;;;;12.03;4.20;;;1.40;99.90;;;;;;5055891;28;20486;-62
2022/01/05 05:22:06;;;;;;;13.67;4.17;;;1.30;99.90;;;;;;5057330;28;20523;-62
2022/01/05 05:24:33;;;;;;;15.30;5.37;;;1.30;99.90;;;;;;5056563;28;20466;-62
2022/01/05 05:27:00;;;;;;;9.43;4.63;;;1.40;99.90;;;;;;5056647;28;20462;-62
2022/01/05 05:29:29;;;;;;;12.87;5.50;;;1.40;99.90;;;;;;5052076;28;20825;-62
2022/01/05 05:31:56;;;;;;;13.23;5.43;;;1.40;99.90;;;;;;5037511;28;20516;-62
2022/01/05 05:34:23;;;;;;;12.70;4.73;;;1.40;99.90;;;;;;5036502;28;20998;-62
2022/01/05 05:36:50;;;;;;;9.27;4.77;;;1.50;99.90;;;;;;5036854;28;20526;-62
2022/01/05 05:39:17;;;;;;;8.13;4.50;;;1.50;99.90;;;;;;5036512;28;20463;-62
2022/01/05 05:41:44;;;;;;;6.10;4.30;;;1.50;99.90;;;;;;5053434;28;20466;-62
2022/01/05 05:44:11;;;;;;;13.00;4.83;;;1.50;99.90;;;;;;5056386;28;20755;-63
2022/01/05 05:46:40;;;;;;;13.80;4.90;;;1.50;99.90;;;;;;5055708;28;20515;-62
2022/01/05 05:49:10;;;;;;;10.77;4.47;;;1.40;99.90;;;;;;5056736;28;20494;-62
2022/01/05 05:51:37;;;;;;;10.20;4.03;;;1.40;99.90;;;;;;5056506;28;20458;-61
2022/01/05 05:54:05;;;;;;;14.10;4.30;;;1.40;99.90;;;;;;5056817;28;20568;-62
2022/01/05 05:56:32;;;;;;;10.20;5.07;;;1.40;99.90;;;;;;5056825;28;20490;-60
2022/01/05 05:59:02;;;;;;;11.70;4.90;;;1.40;99.90;;;;;;5051431;28;20528;-62
2022/01/05 06:01:29;;;;;;;18.57;4.77;;;1.50;99.90;;;;;;5056197;28;20469;-62
2022/01/05 06:04:00;;;;;;;8.17;4.30;;;1.50;99.90;;;;;;5054129;28;20553;-62
2022/01/05 06:06:27;;;;;;;27.17;6.07;;;1.50;99.90;;;;;;5057505;28;20523;-61
2022/01/05 06:08:54;;;;;;;9.17;4.20;;;1.50;99.90;;;;;;5057494;28;20778;-59
2022/01/05 06:11:24;;;;;;;13.27;5.70;;;1.50;99.90;;;;;;5053668;28;20510;-62
2022/01/05 06:13:52;;;;;;;20.50;4.70;;;1.60;99.90;;;;;;5041015;28;20466;-62
2022/01/05 06:16:19;;;;;;;9.03;4.23;;;1.60;99.90;;;;;;5040030;28;20544;-62
2022/01/05 06:18:47;;;;;;;9.77;4.40;;;1.60;99.90;;;;;;5043837;28;20511;-60
2022/01/05 06:21:15;;;;;;;10.13;5.10;;;1.60;99.90;;;;;;5058681;28;20494;-61
2022/01/05 06:23:42;;;;;;;13.27;5.43;;;1.50;99.90;;;;;;5059597;28;20489;-61
2022/01/05 06:26:12;;;;;;;8.33;5.00;;;1.60;99.90;;;;;;5060052;28;20458;-62
2022/01/05 06:28:39;;;;;;;10.07;4.77;;;1.50;99.90;;;;;;5058999;28;20466;-62
2022/01/05 06:31:06;;;;;;;15.07;5.57;;;1.60;99.90;;;;;;5039440;28;20888;-61
2022/01/05 06:33:33;;;;;;;15.70;4.60;;;1.60;99.90;;;;;;5039500;28;20493;-61
2022/01/05 06:36:00;;;;;;;14.03;4.87;;;1.60;99.90;;;;;;5039482;28;20527;-60
2022/01/05 06:38:31;;;;;;;14.60;4.80;;;1.60;99.90;;;;;;5040178;28;20600;-57
2022/01/05 06:40:58;;;;;;;10.77;5.00;;;1.70;99.90;;;;;;5039654;28;20473;-61
2022/01/05 06:43:25;;;;;;;10.30;4.30;;;1.60;99.90;;;;;;5048680;28;20474;-61
2022/01/05 06:45:52;;;;;;;11.70;4.20;;;1.70;99.90;;;;;;5059057;28;20469;-61
2022/01/05 06:48:20;;;;;;;15.23;5.43;;;1.60;99.90;;;;;;5059834;28;20966;-61
2022/01/05 06:50:47;;;;;;;15.47;5.50;;;1.70;99.90;;;;;;5049084;28;20549;-60
2022/01/05 06:53:15;;;;;;;11.30;5.33;;;1.70;99.90;;;;;;5039307;28;20503;-59
2022/01/05 06:55:47;;;;;;;12.27;5.80;;;1.70;99.90;;;;;;5053031;28;20497;-59
2022/01/05 06:58:14;;;;;;;12.80;4.63;;;1.70;99.90;;;;;;5059411;28;20820;-61
2022/01/05 07:00:41;;;;;;;12.70;4.73;;;1.70;99.90;;;;;;5058625;28;20564;-61
2022/01/05 07:03:10;;;;;;;10.73;4.60;;;1.70;99.90;;;;;;5058704;28;20463;-62
2022/01/05 07:05:38;;;;;;;21.80;6.90;;;1.70;99.90;;;;;;5058744;28;20793;-61
2022/01/05 07:08:05;;;;;;;14.97;6.40;;;1.70;99.90;;;;;;5059324;28;20469;-61
2022/01/05 07:10:32;;;;;;;16.53;5.20;;;1.70;99.90;;;;;;5059506;28;20466;-61
2022/01/05 07:13:00;;;;;;;14.63;6.43;;;1.70;99.90;;;;;;5039005;28;20548;-62
2022/01/05 07:15:30;;;;;;;13.80;5.50;;;1.70;99.90;;;;;;5038962;28;20929;-61
2022/01/05 07:17:58;;;;;;;24.07;8.67;;;1.70;99.90;;;;;;5038839;28;20459;-62
2022/01/05 07:20:28;;;;;;;13.93;6.17;;;1.70;99.90;;;;;;5038636;28;20541;-59
2022/01/05 07:22:55;;;;;;;13.10;6.50;;;1.70;99.90;;;;;;5038611;28;20493;-62
2022/01/05 07:25:22;;;;;;;14.43;5.70;;;1.70;99.90;;;;;;5038981;28;20471;-62
2022/01/05 07:27:49;;;;;;;17.63;5.87;;;1.70;99.90;;;;;;5038768;28;20932;-59
2022/01/05 07:30:17;;;;;;;8.23;5.30;;;1.70;99.90;;;;;;5039097;28;20467;-62
2022/01/05 07:32:47;;;;;;;13.20;5.20;;;1.70;99.90;;;;;;5038269;28;20549;-61
2022/01/05 07:35:14;;;;;;;12.83;5.00;;;1.80;99.90;;;;;;5054653;28;20496;-61
2022/01/05 07:37:41;;;;;;;14.47;6.00;;;1.70;99.90;;;;;;5057489;28;20527;-62
2022/01/05 07:40:12;;;;;;;13.33;5.00;;;1.70;99.90;;;;;;5057144;28;20568;-61
2022/01/05 07:42:39;;;;;;;10.70;5.23;;;1.80;99.90;;;;;;5054302;28;20458;-60
2022/01/05 07:45:09;;;;;;;12.43;4.90;;;1.80;99.90;;;;;;5058624;28;20504;-61
2022/01/05 07:47:38;;;;;;;18.07;5.50;;;1.80;99.90;;;;;;5058892;28;20569;-61
2022/01/05 07:50:11;;;;;;;13.47;6.80;;;1.80;99.90;;;;;;5058585;28;20463;-61
2022/01/05 07:52:39;;;;;;;19.77;7.00;;;1.80;99.90;;;;;;5057628;28;20508;-62
2022/01/05 07:55:07;;;;;;;15.47;7.47;;;1.90;99.90;;;;;;5056961;28;20536;-61
2022/01/05 07:57:34;;;;;;;14.93;6.40;;;1.80;99.90;;;;;;5057473;28;20957;-60
2022/01/05 08:00:01;;;;;;;14.93;7.20;;;1.90;99.90;;;;;;5058563;28;20466;-60
2022/01/05 08:02:30;;;;;;;17.47;6.43;;;1.90;99.90;;;;;;5058038;28;20816;-58
2022/01/05 08:04:58;;;;;;;15.17;7.13;;;1.90;99.90;;;;;;5058132;28;20473;-61
2022/01/05 08:07:26;;;;;;;16.00;6.50;;;1.90;99.90;;;;;;5057887;28;20802;-61
2022/01/05 08:09:53;;;;;;;21.90;8.00;;;1.90;99.90;;;;;;5058162;28;20461;-59
2022/01/05 08:12:20;;;;;;;12.17;6.70;;;1.90;99.90;;;;;;5057348;28;20494;-61
2022/01/05 08:14:47;;;;;;;15.77;6.93;;;1.90;99.90;;;;;;5058118;28;20727;-61
2022/01/05 08:17:14;;;;;;;17.30;6.40;;;1.90;99.90;;;;;;5057289;28;20494;-61
2022/01/05 08:19:41;;;;;;;12.30;6.50;;;1.90;99.90;;;;;;5057773;28;20957;-60
2022/01/05 08:22:13;;;;;;;18.90;6.80;;;2.00;99.90;;;;;;5057370;28;20786;-61
2022/01/05 08:24:40;;;;;;;18.40;7.10;;;1.90;99.90;;;;;;5057607;28;20492;-61
2022/01/05 08:27:08;;;;;;;13.33;7.30;;;2.00;99.90;;;;;;5057496;28;20463;-61
2022/01/05 08:29:35;;;;;;;13.23;6.20;;;2.00;99.90;;;;;;5057241;28;20484;-61
2022/01/05 08:32:04;;;;;;;20.03;6.40;;;2.00;99.90;;;;;;5057772;28;20465;-62
2022/01/05 08:34:31;;;;;;;19.87;6.90;;;2.00;99.90;;;;;;5057653;28;20490;-61
2022/01/05 08:37:00;;;;;;;13.27;5.57;;;2.00;99.90;;;;;;5057086;28;20851;-61
2022/01/05 08:39:29;;;;;;;10.20;7.33;;;2.10;99.90;;;;;;5056919;28;20555;-59
2022/01/05 08:41:56;;;;;;;14.77;7.33;;;2.10;99.90;;;;;;5057563;28;20470;-61
2022/01/05 08:44:23;;;;;;;24.20;8.33;;;2.10;99.90;;;;;;5057474;28;20920;-58
2022/01/05 08:46:50;;;;;;;17.90;7.27;;;2.10;99.90;;;;;;5056190;28;20771;-62
2022/01/05 08:49:20;;;;;;;12.03;7.40;;;2.10;99.90;;;;;;5057230;28;20462;-61
2022/01/05 08:51:47;;;;;;;11.83;6.50;;;2.20;99.90;;;;;;5057486;28;20976;-61
2022/01/05 08:54:14;;;;;;;21.00;6.90;;;2.20;99.90;;;;;;5057630;28;20464;-61
2022/01/05 08:56:42;;;;;;;24.10;9.00;;;2.20;99.90;;;;;;5056655;28;20595;-61
2022/01/05 08:59:09;;;;;;;15.60;9.03;;;2.30;99.90;;;;;;5057083;28;20462;-60
2022/01/05 09:01:36;;;;;;;15.27;7.17;;;2.20;99.90;;;;;;5057120;28;20462;-62
2022/01/05 09:04:03;;;;;;;20.43;7.33;;;2.20;99.90;;;;;;5057118;28;20519;-62
2022/01/05 09:06:30;;;;;;;22.10;9.50;;;2.20;99.90;;;;;;5057141;28;20466;-62
2022/01/05 09:09:00;;;;;;;11.47;7.70;;;2.20;99.90;;;;;;5056898;28;20462;-62
2022/01/05 09:11:28;;;;;;;12.97;8.40;;;2.20;99.90;;;;;;5050040;28;20544;-63
2022/01/05 09:13:56;;;;;;;14.83;8.17;;;2.20;99.90;;;;;;5037276;28;20890;-62
2022/01/05 09:16:23;;;;;;;16.43;7.70;;;2.30;99.90;;;;;;5043938;28;20859;-62
2022/01/05 09:18:51;;;;;;;15.13;8.20;;;2.30;99.90;;;;;;5056526;28;20454;-62
2022/01/05 09:21:18;;;;;;;23.80;8.87;;;2.30;99.90;;;;;;5056384;28;20454;-63
2022/01/05 09:23:45;;;;;;;22.77;8.47;;;2.30;99.90;;;;;;5056052;28;20525;-62
2022/01/05 09:26:14;;;;;;;23.67;8.93;;;2.40;99.90;;;;;;5053613;28;20442;-63
2022/01/05 09:28:44;;;;;;;18.20;8.50;;;2.40;99.90;;;;;;5055959;28;20462;-60
2022/01/05 09:31:12;;;;;;;18.10;9.13;;;2.50;99.90;;;;;;5055818;28;20466;-62
2022/01/05 09:33:39;;;;;;;16.63;8.83;;;2.60;99.90;;;;;;5056183;28;20900;-62
2022/01/05 09:36:12;;;;;;;15.17;8.50;;;2.70;99.90;;;;;;5056292;28;20508;-63
2022/01/05 09:44:09;;;;;;;11.37;8.47;;;2.40;99.90;;;;;;5056916;28;20491;-62
2022/01/05 09:46:46;;;;;;;19.87;8.97;;;2.40;99.90;;;;;;5057753;28;20500;-63
2022/01/05 09:49:18;;;;;;;15.33;9.13;;;2.40;99.90;;;;;;5057362;28;20450;-62
2022/01/05 09:51:51;;;;;;;15.83;8.80;;;2.40;99.90;;;;;;5060152;28;20515;-62
2022/01/05 09:54:19;;;;;;;14.83;7.80;;;2.40;99.90;;;;;;5057525;28;20454;-62
2022/01/05 09:56:46;;;;;;;19.97;8.50;;;2.40;99.90;;;;;;5057993;28;20860;-62
2022/01/05 09:59:15;;;;;;;18.53;9.70;;;2.30;99.90;;;;;;5057012;28;20483;-62
2022/01/05 10:01:44;;;;;;;15.47;8.33;;;2.40;99.90;;;;;;5058353;28;20477;-62
2022/01/05 10:04:13;;;;;;;18.43;9.23;;;2.40;99.90;;;;;;5059586;28;20512;-62
2022/01/05 10:06:41;;;;;;;18.93;8.37;;;2.50;99.90;;;;;;5057444;28;20453;-61
2022/01/05 10:09:09;;;;;;;18.43;9.47;;;2.50;99.90;;;;;;5058828;28;20457;-61
2022/01/05 10:11:36;;;;;;;16.87;8.87;;;2.60;99.90;;;;;;5055581;28;20517;-62
2022/01/05 10:14:04;;;;;;;18.93;8.27;;;2.70;99.90;;;;;;5057744;28;20918;-62
2022/01/05 10:16:31;;;;;;;19.67;8.70;;;2.70;99.90;;;;;;5056093;28;20539;-62
2022/01/05 10:19:00;;;;;;;21.63;9.10;;;2.80;99.90;;;;;;5058986;28;20973;-62
2022/01/05 10:21:35;;;;;;;20.60;11.13;;;2.80;99.90;;;;;;5057355;28;20974;-63
2022/01/05 10:24:04;;;;;;;15.43;7.33;;;2.80;99.90;;;;;;5059317;28;20489;-62
2022/01/05 10:26:33;;;;;;;26.87;8.43;;;2.80;99.90;;;;;;5058310;28;21132;-62
2022/01/05 10:29:05;;;;;;;18.10;7.60;;;2.80;99.90;;;;;;5057542;28;20458;-62
2022/01/05 10:31:34;;;;;;;8.37;6.87;;;2.80;99.90;;;;;;5055358;28;20462;-62
2022/01/05 10:34:18;;;;;;;18.53;6.90;;;2.90;99.90;;;;;;5056100;28;20494;-62
2022/01/05 10:36:49;;;;;;;11.47;6.83;;;2.90;99.90;;;;;;5056515;28;20520;-63
2022/01/05 10:39:20;;;;;;;13.37;7.30;;;2.90;99.90;;;;;;5054460;28;20544;-62
2022/01/05 10:41:47;;;;;;;12.63;6.80;;;2.90;99.90;;;;;;5058964;28;20454;-62
2022/01/05 10:44:19;;;;;;;11.40;7.80;;;2.80;99.90;;;;;;5052930;28;20467;-61
2022/01/05 10:46:49;;;;;;;14.07;7.00;;;2.80;99.90;;;;;;5051953;28;20814;-61
2022/01/05 10:49:29;;;;;;;14.67;7.73;;;2.80;99.90;;;;;;5054952;28;20454;-61
2022/01/05 10:51:58;;;;;;;22.13;8.80;;;2.70;99.90;;;;;;5055261;28;20461;-61
2022/01/05 10:54:27;;;;;;;18.87;8.10;;;2.70;99.90;;;;;;5058421;28;20548;-63
2022/01/05 10:56:54;;;;;;;18.97;7.90;;;2.70;99.90;;;;;;5054359;28;20774;-62
2022/01/05 10:59:35;;;;;;;10.57;7.03;;;2.60;99.90;;;;;;5058523;28;20454;-61
2022/01/05 11:02:20;;;;;;;20.13;8.03;;;2.60;99.90;;;;;;5055571;28;20495;-63
2022/01/05 11:04:49;;;;;;;11.63;7.73;;;2.60;99.90;;;;;;5056968;28;20458;-62
2022/01/05 11:07:21;;;;;;;12.60;7.70;;;2.60;99.90;;;;;;5057380;28;20881;-62
2022/01/05 11:09:56;;;;;;;15.57;7.30;;;2.60;99.90;;;;;;5058177;28;20470;-63
2022/01/05 11:12:32;;;;;;;9.60;7.10;;;2.60;99.90;;;;;;5055261;28;20489;-63
2022/01/05 11:15:18;;;;;;;13.40;7.60;;;2.70;99.90;;;;;;5056156;28;20485;-62
2022/01/05 11:18:13;;;;;;;17.73;7.17;;;2.70;99.90;;;;;;5056723;28;20525;-62
2022/01/05 11:20:46;;;;;;;18.03;8.00;;;2.70;99.90;;;;;;5058507;28;20487;-62
2022/01/05 11:23:14;;;;;;;18.73;8.30;;;2.70;99.90;;;;;;5047492;28;20438;-63
2022/01/05 11:25:44;;;;;;;22.20;7.90;;;2.70;99.90;;;;;;5039543;28;20498;-62
2022/01/05 11:28:12;;;;;;;12.47;7.50;;;2.70;99.90;;;;;;5038523;28;20778;-62
2022/01/05 11:30:40;;;;;;;17.27;8.67;;;2.70;99.90;;;;;;5046301;28;20459;-62
2022/01/05 11:33:07;;;;;;;15.40;7.10;;;2.60;99.90;;;;;;5044592;28;20817;-63
2022/01/05 11:35:36;;;;;;;15.33;7.60;;;2.70;99.90;;;;;;5056072;28;20901;-62
2022/01/05 11:38:06;;;;;;;15.53;7.50;;;2.50;99.90;;;;;;5056292;28;20923;-62
2022/01/05 11:40:35;;;;;;;17.13;7.40;;;2.50;99.90;;;;;;5058010;28;20481;-64
2022/01/05 11:43:05;;;;;;;17.40;7.83;;;2.60;99.90;;;;;;5049115;28;20459;-63
2022/01/05 11:45:35;;;;;;;16.60;7.83;;;2.50;99.90;;;;;;5053724;28;20473;-63
2022/01/05 11:48:26;;;;;;;12.90;8.00;;;2.60;99.90;;;;;;5051414;28;20735;-63
2022/01/05 11:50:56;;;;;;;14.03;7.73;;;2.70;99.90;;;;;;5055009;28;20461;-63
2022/01/05 11:53:38;;;;;;;13.00;6.97;;;2.80;99.90;;;;;;5054668;28;20455;-62
2022/01/05 11:56:16;;;;;;;12.77;7.50;;;2.80;99.90;;;;;;5047612;28;20474;-64
2022/01/05 11:58:55;;;;;;;12.97;7.70;;;2.90;99.90;;;;;;5051967;28;20493;-63
2022/01/05 12:01:34;;;;;;;13.73;8.10;;;2.90;99.90;;;;;;5054331;28;20828;-63
2022/01/05 12:04:10;;;;;;;14.80;8.33;;;3.00;99.90;;;;;;5057101;28;20545;-63
2022/01/05 12:07:07;;;;;;;15.60;8.90;;;3.00;99.90;;;;;;5056946;28;20548;-63
2022/01/05 12:09:40;;;;;;;15.53;9.33;;;3.00;99.90;;;;;;5056125;28;20489;-64
2022/01/05 12:12:36;;;;;;;12.00;8.40;;;3.00;99.90;;;;;;5054728;28;20513;-64
2022/01/05 12:15:05;;;;;;;11.60;7.00;;;2.90;99.90;;;;;;5054686;28;20481;-63
2022/01/05 12:17:33;;;;;;;13.23;7.80;;;2.90;99.90;;;;;;5054420;28;20498;-63
2022/01/05 12:20:20;;;;;;;17.50;8.50;;;2.90;99.90;;;;;;5051154;28;20470;-63
2022/01/05 12:22:47;;;;;;;18.60;8.73;;;3.00;99.90;;;;;;5041025;28;20803;-63
2022/01/05 12:25:22;;;;;;;21.87;8.73;;;3.10;99.90;;;;;;5051720;28;20462;-63
2022/01/05 12:27:58;;;;;;;14.23;7.83;;;3.10;99.90;;;;;;5056194;28;20512;-63
2022/01/05 12:30:40;;;;;;;14.07;8.50;;;3.00;99.90;;;;;;5051940;28;20501;-63
2022/01/05 12:33:13;;;;;;;23.97;8.17;;;3.10;99.90;;;;;;5052040;28;20432;-63
2022/01/05 12:35:46;;;;;;;17.67;7.77;;;3.10;99.90;;;;;;5048060;28;20454;-61
2022/01/05 12:38:30;;;;;;;14.37;7.50;;;3.20;99.90;;;;;;5051937;28;20493;-63
2022/01/05 12:41:18;;;;;;;18.83;8.20;;;3.20;99.90;;;;;;5054933;28;20433;-62
2022/01/05 12:43:45;;;;;;;18.63;8.47;;;3.30;99.90;;;;;;5044652;28;20855;-63
2022/01/05 12:46:13;;;;;;;14.50;8.00;;;3.40;99.90;;;;;;5054391;28;20548;-63
2022/01/05 12:49:05;;;;;;;14.10;7.00;;;3.40;99.90;;;;;;5055973;28;20458;-63
2022/01/05 12:51:52;;;;;;;13.47;7.53;;;3.40;99.90;;;;;;5055441;28;20508;-63
2022/01/05 12:54:29;;;;;;;17.33;9.13;;;3.40;99.90;;;;;;5056033;28;20469;-64
2022/01/05 12:56:59;;;;;;;22.10;9.07;;;3.50;99.90;;;;;;5056608;28;20766;-63
2022/01/05 12:59:29;;;;;;;12.90;6.97;;;3.60;99.90;;;;;;5054508;28;20561;-63
2022/01/05 13:02:00;;;;;;;17.80;7.83;;;3.60;99.90;;;;;;5056939;28;20890;-63
2022/01/05 13:04:27;;;;;;;16.03;9.00;;;3.60;99.90;;;;;;5051056;28;20763;-62
2022/01/05 13:06:59;;;;;;;20.77;8.53;;;3.70;99.90;;;;;;5043054;28;20465;-63